Airfield :
LOGIN :

Register | Disclaimer

   EN    FR    IT 

 










Legend :    VFR   Marginal VFR   IFR   Intensive IFR   Very Intensive IFR
Visi :
Ceiling :
>= 8 km
>= 3000ft
5 to 8 km
1000 to 3000 ft
1500m to 5 km
500 to 1000 ft
800 to 1500m
200 to 500 ft
< 800m
< 200 ft
Symbols :   Thunderstorms  Fog  Heavy snow  Heavy precipitations  Wind > 20 kt
SIGMETs :     Misc.  Thunderstorms  Icing  Turbulence  Mountain Waves  Volcanic Ashes






- Airport Elevation : 325 ft
- IATA code : BES


LFRB - Brest

CURRENT METAR :
  • 070700Z AUTO 35007KT 310V030 9999 OVC008 17/16 Q1030 TEMPO 3000 BR BECMG BKN012

EXPIRED METARs :
  • 070630Z AUTO 35010KT 320V020 9999 OVC007 16/15 Q1030 TEMPO 3000 BR BECMG BKN012
  • 070600Z AUTO 35008KT 9999 OVC006 16/15 Q1030 TEMPO 3000 BR BKN003
  • 070530Z AUTO 34007KT 9999 BKN005 OVC030 16/15 Q1029 TEMPO 3000 BR
  • 070500Z AUTO 35008KT 9999 OVC005 16/15 Q1029 TEMPO 3000 BR
  • 070400Z AUTO 34008KT 9999 BKN005 OVC031 16/15 Q1029 TEMPO 3000 BR

TAF TAF LFRB
Valid from the 07 at 06:00 until the 08 at 12:00 UTC


070500Z 0706/0812 34010KT 9999 BKN007
PROB30
TEMPO 0706/0708 3000 BR BKN003
BECMG 0708/0710 BKN012
BECMG 0712/0714 SCT020
BECMG 0722/0724 04010KT
TEMPO 0800/0806 3000 BR
PROB40
TEMPO 0802/0806 0500 FG
ATIS : +33 2 98 32 02 71



MET'MAP, your aeronautical weather chart ! - Copyright ORBIFLY December 2007 - Disclaimer

ORBIFLY MET'MAP TEAM :

Programming & Development : Alexandra Zaïnal
Original concept : Baudouin d'Aumeries
Technical & hardware support : Manuel Goepfert
Assistance : Marc-Olivier Méhu




SOURCES & CREDITS :

   NOAA